createdAt,value
2019-02-24T00:01:19.669Z,17.62
2019-02-24T00:06:17.956Z,19.82
2019-02-24T00:08:47.338Z,20.25
2019-02-24T00:11:16.712Z,19.35
2019-02-24T00:13:46.074Z,19.07
2019-02-24T00:16:16.076Z,18.05
2019-02-24T00:18:45.436Z,18.37
2019-02-24T00:21:14.801Z,19.15
2019-02-24T00:23:47.138Z,19.77
2019-02-24T00:26:16.502Z,18.75
2019-02-24T00:28:45.869Z,19.05
2019-02-24T00:31:19.530Z,19.10
2019-02-24T00:33:48.848Z,19.27
2019-02-24T00:36:18.244Z,21.82
2019-02-24T00:38:47.629Z,22.77
2019-02-24T00:41:17.271Z,21.25
2019-02-24T00:43:46.656Z,22.02
2019-02-24T00:46:16.198Z,22.02
2019-02-24T00:48:45.575Z,20.55
2019-02-24T00:51:25.412Z,20.25
2019-02-24T00:53:55.159Z,21.07
2019-02-24T00:56:28.880Z,18.98
2019-02-24T00:58:58.252Z,21.00
2019-02-24T01:01:33.678Z,19.52
2019-02-24T01:04:03.028Z,22.05
2019-02-24T01:06:32.426Z,20.43
2019-02-24T01:09:01.794Z,20.10
2019-02-24T01:11:31.153Z,19.52
2019-02-24T01:14:00.527Z,19.52
2019-02-24T01:16:30.248Z,20.82
2019-02-24T01:18:59.646Z,20.52
2019-02-24T01:21:28.992Z,20.55
2019-02-24T01:23:58.370Z,18.77
2019-02-24T01:26:27.750Z,17.77
2019-02-24T01:28:57.119Z,17.42
2019-02-24T01:31:27.821Z,18.05
2019-02-24T01:33:57.191Z,18.50
2019-02-24T01:36:26.561Z,18.17
2019-02-24T01:38:56.207Z,18.65
2019-02-24T01:41:25.579Z,18.32
2019-02-24T01:43:55.315Z,19.17
2019-02-24T01:46:24.697Z,19.73
2019-02-24T01:48:54.067Z,19.40
2019-02-24T01:51:23.434Z,18.32
2019-02-24T01:53:52.799Z,18.65
2019-02-24T01:56:22.422Z,19.25
2019-02-24T01:58:51.796Z,20.48
2019-02-24T02:01:21.418Z,19.60
2019-02-24T02:03:50.740Z,19.60
2019-02-24T02:06:20.118Z,19.35
2019-02-24T02:08:49.492Z,19.85
2019-02-24T02:11:19.434Z,20.90
2019-02-24T02:13:49.154Z,18.27
2019-02-24T02:16:18.570Z,19.57
2019-02-24T02:18:47.936Z,18.67
2019-02-24T02:21:17.316Z,19.45
2019-02-24T02:23:46.912Z,18.77
2019-02-24T02:26:16.271Z,17.00
2019-02-24T02:28:45.641Z,18.12
2019-02-24T02:31:15.036Z,16.80
2019-02-24T02:33:44.408Z,17.40
2019-02-24T02:36:13.785Z,18.27
2019-02-24T02:38:43.164Z,17.85
2019-02-24T02:41:12.537Z,17.95
2019-02-24T02:43:41.893Z,17.87
2019-02-24T02:46:11.301Z,17.82
2019-02-24T02:48:40.666Z,19.45
2019-02-24T02:51:10.214Z,19.07
2019-02-24T02:53:39.614Z,19.02
2019-02-24T02:56:08.967Z,18.90
2019-02-24T02:58:39.536Z,19.30
2019-02-24T03:01:08.918Z,20.20
2019-02-24T03:03:40.970Z,19.12
2019-02-24T03:06:30.219Z,17.98
2019-02-24T03:08:59.578Z,18.27
2019-02-24T03:11:28.946Z,20.15
2019-02-24T03:13:58.360Z,18.82
2019-02-24T03:16:28.058Z,19.87
2019-02-24T03:18:57.427Z,19.40
2019-02-24T03:21:26.931Z,19.50
2019-02-24T03:23:56.261Z,19.17
2019-02-24T03:26:25.882Z,20.02
2019-02-24T03:29:03.837Z,18.30
2019-02-24T03:31:26.539Z,18.48
2019-02-24T03:33:55.906Z,18.15
2019-02-24T03:36:25.297Z,19.37
2019-02-24T03:38:54.669Z,17.98
2019-02-24T03:41:24.045Z,19.37
2019-02-24T03:43:53.427Z,19.45
2019-02-24T03:46:22.810Z,18.52
2019-02-24T03:48:52.178Z,18.98
2019-02-24T03:51:21.821Z,16.12
2019-02-24T03:53:51.195Z,14.18
2019-02-24T03:56:20.556Z,14.10
2019-02-24T03:58:49.947Z,13.55
2019-02-24T04:01:19.953Z,10.93
2019-02-24T04:03:49.314Z,11.80
2019-02-24T04:06:18.714Z,10.82
2019-02-24T04:08:48.080Z,11.25
2019-02-24T04:11:17.494Z,10.63
2019-02-24T04:13:58.919Z,10.28
2019-02-24T04:16:28.302Z,10.82
2019-02-24T04:18:57.649Z,13.08
2019-02-24T04:21:27.025Z,13.50
2019-02-24T04:23:56.399Z,11.68
2019-02-24T04:26:25.881Z,11.60
2019-02-24T04:28:55.221Z,11.08
2019-02-24T04:31:24.598Z,11.83
2019-02-24T04:33:53.965Z,10.50
2019-02-24T04:36:23.688Z,10.13
2019-02-24T04:38:53.048Z,10.53
2019-02-24T04:41:22.416Z,10.32
2019-02-24T04:43:51.842Z,10.82
2019-02-24T04:46:21.285Z,10.58
2019-02-24T04:48:50.651Z,10.43
2019-02-24T04:51:20.044Z,10.82
2019-02-24T04:53:49.407Z,11.12
2019-02-24T04:56:19.052Z,10.80
2019-02-24T04:58:48.456Z,10.35
2019-02-24T05:01:17.829Z,11.10
2019-02-24T05:03:47.657Z,10.70
2019-02-24T05:06:17.042Z,10.18
2019-02-24T05:08:46.410Z,11.25
2019-02-24T05:11:15.792Z,10.40
2019-02-24T05:13:45.168Z,11.75
2019-02-24T05:16:14.537Z,10.55
2019-02-24T05:18:43.905Z,11.83
2019-02-24T05:21:13.566Z,10.90
2019-02-24T05:23:43.173Z,11.00
2019-02-24T05:26:12.691Z,11.03
2019-02-24T05:28:42.057Z,11.22
2019-02-24T05:31:11.427Z,10.58
2019-02-24T05:33:40.805Z,10.82
2019-02-24T05:36:10.180Z,11.05
2019-02-24T05:38:39.537Z,10.93
2019-02-24T05:41:08.982Z,13.00
2019-02-24T05:43:38.380Z,13.30
2019-02-24T05:46:09.396Z,12.15
2019-02-24T05:48:39.186Z,13.13
2019-02-24T05:51:11.200Z,14.18
2019-02-24T05:53:40.568Z,12.80
2019-02-24T05:56:09.938Z,14.10
2019-02-24T05:58:39.779Z,14.03
2019-02-24T06:01:09.142Z,13.60
2019-02-24T06:03:38.504Z,13.83
2019-02-24T06:06:08.303Z,13.60
2019-02-24T06:08:37.667Z,13.90
2019-02-24T06:11:07.033Z,14.28
2019-02-24T06:13:36.498Z,14.45
2019-02-24T06:16:05.861Z,13.98
2019-02-24T06:18:35.221Z,14.28
2019-02-24T06:21:05.238Z,14.68
2019-02-24T06:23:34.607Z,14.25
2019-02-24T06:26:04.070Z,15.05
2019-02-24T06:28:33.505Z,15.00
2019-02-24T06:31:02.871Z,14.75
2019-02-24T06:33:32.522Z,16.45
2019-02-24T06:36:01.909Z,17.10
2019-02-24T06:38:31.266Z,15.23
2019-02-24T06:41:00.632Z,15.35
2019-02-24T06:43:35.683Z,14.98
2019-02-24T06:46:05.055Z,15.38
2019-02-24T06:48:34.415Z,13.90
2019-02-24T06:51:05.446Z,13.93
2019-02-24T06:53:34.822Z,13.62
2019-02-24T06:56:04.178Z,15.68
2019-02-24T06:58:33.550Z,13.72
2019-02-24T07:01:02.923Z,14.33
2019-02-24T07:03:32.625Z,14.05
2019-02-24T07:06:02.350Z,14.47
2019-02-24T07:08:32.063Z,15.03
2019-02-24T07:11:01.426Z,13.55
2019-02-24T07:13:30.812Z,14.13
2019-02-24T07:16:00.178Z,14.65
2019-02-24T07:18:29.550Z,13.72
2019-02-24T07:20:58.940Z,14.00
2019-02-24T07:23:28.311Z,13.78
2019-02-24T07:25:57.676Z,13.90
2019-02-24T07:28:27.345Z,14.10
2019-02-24T07:30:56.718Z,14.58
2019-02-24T07:33:26.095Z,13.83
2019-02-24T07:35:55.484Z,14.35
2019-02-24T07:38:24.854Z,15.08
2019-02-24T07:40:54.222Z,14.43
2019-02-24T07:43:23.649Z,15.25
2019-02-24T07:45:52.980Z,14.60
2019-02-24T07:48:22.351Z,13.45
2019-02-24T07:50:51.761Z,14.47
2019-02-24T07:53:21.133Z,14.23
2019-02-24T07:55:50.495Z,14.38
2019-02-24T07:58:19.868Z,16.27
2019-02-24T08:00:49.238Z,17.30
2019-02-24T08:03:18.613Z,15.48
2019-02-24T08:05:48.007Z,17.32
2019-02-24T08:08:17.371Z,16.57
2019-02-24T08:10:47.757Z,14.80
2019-02-24T08:13:17.384Z,16.80
2019-02-24T08:15:46.764Z,15.30
2019-02-24T08:18:16.134Z,13.65
2019-02-24T08:20:45.607Z,14.35
2019-02-24T08:23:15.003Z,14.07
2019-02-24T08:25:44.363Z,13.28
2019-02-24T08:28:13.734Z,18.60
2019-02-24T08:30:43.114Z,14.03
2019-02-24T08:33:12.488Z,13.43
2019-02-24T08:35:42.083Z,14.10
2019-02-24T08:38:11.491Z,13.68
2019-02-24T08:40:40.859Z,13.18
2019-02-24T08:43:10.238Z,15.72
2019-02-24T08:45:39.609Z,12.40
2019-02-24T08:48:08.978Z,18.55
2019-02-24T08:50:38.369Z,13.53
2019-02-24T08:53:07.738Z,13.83
2019-02-24T08:55:37.110Z,15.20
2019-02-24T08:58:06.782Z,14.47
2019-02-24T09:00:36.164Z,13.80
2019-02-24T09:03:05.528Z,15.28
2019-02-24T09:05:37.780Z,14.63
2019-02-24T09:08:07.094Z,14.25
2019-02-24T09:10:36.467Z,16.35
2019-02-24T09:13:06.683Z,14.07
2019-02-24T09:15:36.073Z,16.10
2019-02-24T09:18:05.449Z,13.35
2019-02-24T09:20:34.856Z,12.40
2019-02-24T09:23:05.754Z,12.55
2019-02-24T09:25:35.137Z,11.80
2019-02-24T09:28:04.516Z,15.53
2019-02-24T09:30:33.967Z,11.57
2019-02-24T09:33:03.344Z,13.75
2019-02-24T09:35:32.723Z,13.00
2019-02-24T09:38:02.099Z,12.93
2019-02-24T09:40:31.548Z,13.22
2019-02-24T09:43:00.953Z,12.55
2019-02-24T09:45:30.332Z,13.03
2019-02-24T09:47:59.700Z,12.23
2019-02-24T09:50:29.089Z,12.85
2019-02-24T09:52:58.451Z,12.13
2019-02-24T09:55:29.513Z,11.73
2019-02-24T09:58:03.003Z,12.05
2019-02-24T10:00:45.362Z,11.73
2019-02-24T10:03:21.425Z,12.20
2019-02-24T10:05:46.417Z,11.55
2019-02-24T10:08:19.024Z,11.00
2019-02-24T10:10:52.336Z,11.53
2019-02-24T10:13:21.702Z,10.90
2019-02-24T10:15:52.111Z,11.12
2019-02-24T10:18:23.306Z,10.50
2019-02-24T10:20:52.674Z,11.75
2019-02-24T10:23:22.350Z,9.90
2019-02-24T10:25:51.730Z,10.10
2019-02-24T10:28:21.095Z,10.03
2019-02-24T10:30:50.537Z,10.48
2019-02-24T10:33:20.017Z,11.53
2019-02-24T10:35:49.343Z,9.55
2019-02-24T10:38:18.718Z,10.80
2019-02-24T10:40:48.272Z,11.20
2019-02-24T10:43:17.645Z,11.57
2019-02-24T10:45:47.030Z,10.65
2019-02-24T10:48:16.436Z,11.78
2019-02-24T10:50:45.835Z,10.35
2019-02-24T10:53:15.235Z,10.30
2019-02-24T10:55:44.620Z,10.68
2019-02-24T10:58:13.993Z,11.50
2019-02-24T11:00:43.374Z,10.58
2019-02-24T11:03:12.802Z,11.15
2019-02-24T11:05:42.181Z,11.30
2019-02-24T11:08:11.563Z,11.25
2019-02-24T11:10:40.976Z,10.13
2019-02-24T11:13:10.340Z,10.32
2019-02-24T11:15:39.742Z,10.00
2019-02-24T11:18:10.122Z,8.93
2019-02-24T11:20:39.497Z,9.20
2019-02-24T11:23:08.871Z,8.95
2019-02-24T11:25:38.268Z,8.95
2019-02-24T11:28:07.645Z,9.65
2019-02-24T11:30:37.165Z,8.15
2019-02-24T11:33:06.553Z,8.05
2019-02-24T11:35:35.933Z,7.92
2019-02-24T11:38:05.302Z,6.60
2019-02-24T11:40:34.694Z,6.75
2019-02-24T11:43:04.064Z,6.53
2019-02-24T11:45:33.449Z,6.05
2019-02-24T11:48:02.841Z,6.28
2019-02-24T11:50:32.223Z,6.50
2019-02-24T11:53:01.603Z,6.33
2019-02-24T11:55:30.982Z,5.40
2019-02-24T11:58:00.365Z,6.37
2019-02-24T12:00:29.732Z,5.35
2019-02-24T12:02:59.109Z,5.33
2019-02-24T12:05:28.509Z,5.78
2019-02-24T12:07:57.905Z,6.08
2019-02-24T12:10:27.545Z,5.37
2019-02-24T12:12:56.915Z,5.50
2019-02-24T12:15:26.292Z,5.50
2019-02-24T12:17:55.671Z,5.65
2019-02-24T12:20:25.435Z,5.57
2019-02-24T12:22:54.805Z,5.42
2019-02-24T12:25:24.194Z,5.97
2019-02-24T12:27:54.399Z,5.60
2019-02-24T12:30:23.798Z,5.43
2019-02-24T12:32:53.173Z,4.97
2019-02-24T12:35:24.085Z,5.33
2019-02-24T12:37:53.465Z,5.78
2019-02-24T12:40:22.845Z,4.97
2019-02-24T12:42:52.225Z,5.58
2019-02-24T12:45:21.604Z,5.20
2019-02-24T12:47:51.560Z,5.50
2019-02-24T12:50:20.945Z,5.57
2019-02-24T12:52:50.310Z,6.08
2019-02-24T12:55:22.706Z,6.67
2019-02-24T12:57:52.073Z,5.45
2019-02-24T13:00:27.128Z,6.07
2019-02-24T13:02:56.489Z,6.33
2019-02-24T13:05:25.850Z,5.60
2019-02-24T13:07:55.593Z,5.45
2019-02-24T13:10:25.034Z,5.37
2019-02-24T13:12:54.415Z,5.05
2019-02-24T13:15:23.815Z,5.20
2019-02-24T13:17:53.197Z,4.67
2019-02-24T13:20:22.556Z,5.30
2019-02-24T13:22:52.132Z,5.78
2019-02-24T13:25:21.510Z,5.47
2019-02-24T13:27:51.156Z,5.33
2019-02-24T13:30:20.824Z,5.50
2019-02-24T13:32:50.193Z,5.37
2019-02-24T13:35:19.580Z,5.10
2019-02-24T13:37:48.950Z,4.92
2019-02-24T13:40:18.408Z,5.40
2019-02-24T13:42:47.784Z,5.17
2019-02-24T13:45:22.443Z,5.33
2019-02-24T13:47:51.811Z,4.80
2019-02-24T13:50:21.185Z,5.00
2019-02-24T13:52:50.548Z,5.08
2019-02-24T13:55:19.915Z,5.63
2019-02-24T13:57:49.278Z,6.15
2019-02-24T14:00:21.386Z,5.60
2019-02-24T14:02:50.761Z,5.37
2019-02-24T14:05:20.131Z,5.27
2019-02-24T14:07:50.057Z,5.08
2019-02-24T14:10:19.426Z,4.53
2019-02-24T14:12:48.805Z,5.28
2019-02-24T14:15:18.209Z,5.97
2019-02-24T14:17:47.579Z,5.78
2019-02-24T14:20:19.119Z,5.37
2019-02-24T14:22:48.520Z,6.05
2019-02-24T14:25:19.357Z,6.23
2019-02-24T14:27:48.709Z,5.85
2019-02-24T14:30:19.242Z,5.83
2019-02-24T14:32:48.608Z,5.95
2019-02-24T14:35:26.523Z,6.57
2019-02-24T14:37:55.898Z,5.72
2019-02-24T14:40:25.276Z,6.03
2019-02-24T14:42:54.967Z,5.67
2019-02-24T14:45:25.261Z,5.67
2019-02-24T14:47:54.565Z,5.25
2019-02-24T14:50:24.138Z,5.03
2019-02-24T14:52:53.509Z,5.22
2019-02-24T14:55:23.119Z,4.75
2019-02-24T14:57:52.500Z,4.70
2019-02-24T15:00:23.895Z,5.10
2019-02-24T15:02:53.273Z,5.08
2019-02-24T15:05:22.693Z,4.80
2019-02-24T15:07:52.060Z,4.67
2019-02-24T15:10:27.793Z,4.40
2019-02-24T15:12:57.778Z,4.67
2019-02-24T15:15:33.962Z,4.53
2019-02-24T15:18:03.346Z,4.60
2019-02-24T15:20:32.724Z,4.10
2019-02-24T15:23:02.088Z,3.98
2019-02-24T15:25:31.469Z,4.55
2019-02-24T15:28:02.283Z,4.17
2019-02-24T15:30:37.061Z,4.17
2019-02-24T15:33:06.475Z,4.40
2019-02-24T15:35:35.858Z,4.40
2019-02-24T15:38:05.463Z,4.70
2019-02-24T15:40:34.837Z,5.05
2019-02-24T15:43:04.549Z,5.92
2019-02-24T15:45:33.915Z,4.37
2019-02-24T15:48:03.670Z,4.60
2019-02-24T15:50:33.067Z,4.72
2019-02-24T15:53:02.442Z,4.58
2019-02-24T15:55:31.812Z,4.42
2019-02-24T15:58:01.232Z,4.47
2019-02-24T16:00:30.600Z,4.55
2019-02-24T16:03:01.864Z,3.98
2019-02-24T16:05:31.426Z,4.20
2019-02-24T16:08:00.799Z,4.08
2019-02-24T16:10:30.174Z,4.00
2019-02-24T16:12:59.554Z,4.85
2019-02-24T16:15:31.591Z,5.10
2019-02-24T16:18:00.957Z,4.58
2019-02-24T16:20:35.733Z,4.65
2019-02-24T16:23:05.107Z,4.55
2019-02-24T16:25:34.486Z,4.17
2019-02-24T16:28:03.863Z,4.17
2019-02-24T16:30:34.243Z,4.28
2019-02-24T16:33:10.338Z,5.30
2019-02-24T16:35:34.706Z,4.75
2019-02-24T16:38:04.148Z,4.95
2019-02-24T16:40:33.553Z,4.42
2019-02-24T16:43:03.246Z,4.35
2019-02-24T16:45:32.626Z,4.95
2019-02-24T16:48:01.997Z,4.53
2019-02-24T16:50:31.411Z,4.78
2019-02-24T16:53:00.781Z,4.92
2019-02-24T16:55:30.158Z,4.40
2019-02-24T16:57:59.542Z,4.60
2019-02-24T17:00:30.050Z,5.45
2019-02-24T17:02:59.430Z,5.12
2019-02-24T17:05:29.594Z,4.72
2019-02-24T17:07:58.968Z,4.37
2019-02-24T17:10:29.781Z,4.70
2019-02-24T17:12:59.164Z,4.95
2019-02-24T17:15:28.542Z,4.60
2019-02-24T17:17:57.927Z,5.15
2019-02-24T17:20:31.843Z,5.10
2019-02-24T17:23:01.229Z,4.70
2019-02-24T17:25:30.603Z,5.25
2019-02-24T17:27:59.976Z,4.75
2019-02-24T17:30:29.347Z,6.28
2019-02-24T17:32:59.771Z,5.40
2019-02-24T17:35:29.175Z,5.80
2019-02-24T17:37:58.548Z,6.28
2019-02-24T17:40:27.925Z,5.33
2019-02-24T17:42:57.402Z,5.42
2019-02-24T17:45:26.780Z,5.58
2019-02-24T17:47:56.164Z,6.40
2019-02-24T17:50:25.569Z,5.97
2019-02-24T17:52:55.269Z,5.92
2019-02-24T17:55:24.654Z,5.60
2019-02-24T17:57:54.025Z,6.22
2019-02-24T18:00:45.043Z,6.55
2019-02-24T18:03:14.645Z,5.30
2019-02-24T18:05:44.007Z,5.40
2019-02-24T18:08:13.381Z,8.45
2019-02-24T18:10:42.766Z,6.90
2019-02-24T18:13:12.140Z,5.25
2019-02-24T18:15:41.533Z,6.20
2019-02-24T18:18:10.929Z,6.03
2019-02-24T18:20:40.290Z,6.53
2019-02-24T18:23:09.666Z,5.50
2019-02-24T18:25:39.458Z,6.78
2019-02-24T18:28:08.862Z,6.40
2019-02-24T18:30:38.295Z,5.92
2019-02-24T18:33:07.666Z,5.83
2019-02-24T18:35:38.282Z,6.30
2019-02-24T18:38:07.658Z,5.47
2019-02-24T18:40:37.038Z,6.25
2019-02-24T18:43:06.468Z,6.20
2019-02-24T18:45:35.841Z,5.78
2019-02-24T18:48:05.665Z,6.05
2019-02-24T18:50:35.032Z,5.75
2019-02-24T18:53:06.409Z,5.37
2019-02-24T18:55:35.566Z,5.37
2019-02-24T18:58:04.936Z,4.72
2019-02-24T19:00:34.318Z,5.20
2019-02-24T19:03:03.694Z,5.35
2019-02-24T19:05:33.084Z,6.25
2019-02-24T19:08:02.463Z,6.25
2019-02-24T19:10:32.400Z,7.25
2019-02-24T19:13:01.784Z,6.53
2019-02-24T19:15:31.170Z,7.85
2019-02-24T19:18:00.873Z,8.78
2019-02-24T19:20:30.246Z,9.05
2019-02-24T19:22:59.631Z,9.68
2019-02-24T19:25:29.015Z,8.88
2019-02-24T19:27:58.391Z,8.88
2019-02-24T19:30:27.762Z,9.67
2019-02-24T19:32:57.330Z,8.28
2019-02-24T19:35:26.724Z,8.47
2019-02-24T19:37:56.861Z,7.75
2019-02-24T19:40:26.249Z,6.60
2019-02-24T19:42:55.621Z,8.18
2019-02-24T19:45:27.981Z,8.63
2019-02-24T19:47:57.362Z,8.00
2019-02-24T19:50:26.739Z,8.07
2019-02-24T19:52:56.115Z,7.42
2019-02-24T19:55:25.525Z,8.43
2019-02-24T19:57:54.905Z,8.23
2019-02-24T20:00:27.466Z,9.87
2019-02-24T20:02:56.855Z,9.95
2019-02-24T20:05:26.242Z,9.70
2019-02-24T20:07:55.901Z,9.90
2019-02-24T20:10:28.293Z,9.30
2019-02-24T20:12:57.663Z,11.93
2019-02-24T20:15:27.103Z,10.30
2019-02-24T20:17:56.455Z,9.38
2019-02-24T20:20:25.841Z,10.90
2019-02-24T20:22:55.279Z,11.38
2019-02-24T20:25:24.957Z,10.30
2019-02-24T20:27:54.352Z,10.60
2019-02-24T20:30:32.969Z,11.50
2019-02-24T20:33:02.380Z,10.28
2019-02-24T20:35:31.761Z,10.28
2019-02-24T20:38:01.155Z,10.65
2019-02-24T20:40:30.662Z,10.48
2019-02-24T20:43:00.052Z,11.12
2019-02-24T20:45:29.605Z,10.40
2019-02-24T20:47:59.067Z,9.78
2019-02-24T20:50:31.893Z,12.10
2019-02-24T20:53:01.297Z,10.15
2019-02-24T20:55:30.681Z,11.20
2019-02-24T20:58:00.047Z,8.88
2019-02-24T21:00:43.779Z,9.73
2019-02-24T21:03:13.155Z,10.33
2019-02-24T21:05:42.535Z,10.65
2019-02-24T21:08:11.948Z,9.90
2019-02-24T21:10:41.353Z,10.85
2019-02-24T21:13:10.720Z,10.40
2019-02-24T21:15:40.121Z,9.30
2019-02-24T21:18:09.502Z,9.28
2019-02-24T21:20:38.871Z,9.25
2019-02-24T21:23:08.284Z,9.73
2019-02-24T21:25:38.043Z,10.05
2019-02-24T21:28:07.406Z,10.65
2019-02-24T21:30:36.809Z,10.63
2019-02-24T21:33:06.179Z,11.40
2019-02-24T21:35:36.848Z,10.93
2019-02-24T21:38:06.225Z,10.75
2019-02-24T21:40:35.621Z,10.90
2019-02-24T21:43:05.506Z,10.85
2019-02-24T21:45:35.580Z,10.68
2019-02-24T21:48:04.963Z,10.85
2019-02-24T21:50:34.332Z,10.38
2019-02-24T21:53:04.439Z,9.90
2019-02-24T21:55:33.823Z,11.12
2019-02-24T21:58:04.440Z,10.98
2019-02-24T22:00:33.963Z,9.98
2019-02-24T22:03:03.331Z,10.05
2019-02-24T22:05:32.706Z,9.58
2019-02-24T22:08:02.106Z,10.72
2019-02-24T22:10:31.562Z,11.33
2019-02-24T22:13:00.932Z,10.98
2019-02-24T22:15:30.339Z,10.08
2019-02-24T22:17:59.722Z,10.80
2019-02-24T22:20:29.126Z,12.37
2019-02-24T22:22:58.771Z,12.63
2019-02-24T22:25:28.145Z,12.47
2019-02-24T22:27:59.224Z,12.60
2019-02-24T22:30:28.562Z,12.85
2019-02-24T22:32:57.944Z,12.78
2019-02-24T22:35:29.051Z,13.50
2019-02-24T22:37:58.609Z,13.85
2019-02-24T22:40:27.989Z,13.55
2019-02-24T22:42:57.363Z,13.08
2019-02-24T22:45:28.567Z,12.63
2019-02-24T22:47:57.937Z,13.08
2019-02-24T22:50:27.312Z,12.33
2019-02-24T22:52:58.929Z,11.95
2019-02-24T22:55:28.303Z,13.15
2019-02-24T22:57:57.700Z,12.63
2019-02-24T23:00:45.609Z,12.03
2019-02-24T23:03:15.043Z,11.85
2019-02-24T23:05:44.683Z,10.98
2019-02-24T23:08:14.187Z,12.15
2019-02-24T23:10:43.565Z,12.65
2019-02-24T23:13:12.977Z,12.73
2019-02-24T23:15:42.329Z,12.45
2019-02-24T23:18:11.737Z,12.23
2019-02-24T23:20:41.138Z,11.68
2019-02-24T23:23:10.519Z,13.28
2019-02-24T23:25:39.898Z,13.25
2019-02-24T23:28:09.290Z,11.90
2019-02-24T23:30:39.020Z,12.37
2019-02-24T23:33:08.393Z,13.40
2019-02-24T23:35:37.770Z,11.25
2019-02-24T23:38:07.143Z,12.40
2019-02-24T23:40:36.520Z,12.33
2019-02-24T23:43:05.978Z,11.70
2019-02-24T23:45:35.414Z,12.73
2019-02-24T23:48:05.260Z,13.03
2019-02-24T23:50:34.632Z,12.60
2019-02-24T23:53:04.259Z,12.50
2019-02-24T23:55:33.640Z,12.82
2019-02-24T23:58:03.017Z,14.38
